sensor_id;sensor_type;location;lat;lon;timestamp;P1;durP1;ratioP1;P2;durP2;ratioP2
40847;SDS011;26570;50.962;5.340;2022-10-04T00:02:28;16.10;;;8.17;;
40847;SDS011;26570;50.962;5.340;2022-10-04T00:05:17;20.10;;;10.53;;
40847;SDS011;26570;50.962;5.340;2022-10-04T00:08:20;21.97;;;10.93;;
40847;SDS011;26570;50.962;5.340;2022-10-04T00:11:22;17.97;;;10.67;;
40847;SDS011;26570;50.962;5.340;2022-10-04T00:14:15;20.43;;;10.67;;
40847;SDS011;26570;50.962;5.340;2022-10-04T00:17:13;19.57;;;12.00;;
40847;SDS011;26570;50.962;5.340;2022-10-04T00:20:10;17.80;;;10.33;;
40847;SDS011;26570;50.962;5.340;2022-10-04T00:34:57;15.80;;;8.53;;
40847;SDS011;26570;50.962;5.340;2022-10-04T00:37:57;21.87;;;9.10;;
40847;SDS011;26570;50.962;5.340;2022-10-04T00:40:56;16.73;;;8.40;;
40847;SDS011;26570;50.962;5.340;2022-10-04T00:46:32;19.37;;;9.17;;
40847;SDS011;26570;50.962;5.340;2022-10-04T00:49:20;17.50;;;9.10;;
40847;SDS011;26570;50.962;5.340;2022-10-04T00:52:21;15.73;;;9.13;;
40847;SDS011;26570;50.962;5.340;2022-10-04T00:55:57;29.20;;;9.55;;
40847;SDS011;26570;50.962;5.340;2022-10-04T00:58:32;14.18;;;8.15;;
40847;SDS011;26570;50.962;5.340;2022-10-04T01:01:25;15.67;;;8.80;;
40847;SDS011;26570;50.962;5.340;2022-10-04T01:04:23;11.97;;;7.63;;
40847;SDS011;26570;50.962;5.340;2022-10-04T01:07:18;12.95;;;7.18;;
40847;SDS011;26570;50.962;5.340;2022-10-04T01:16:12;24.07;;;9.23;;
40847;SDS011;26570;50.962;5.340;2022-10-04T01:22:13;17.55;;;7.68;;
40847;SDS011;26570;50.962;5.340;2022-10-04T01:28:27;11.67;;;6.97;;
40847;SDS011;26570;50.962;5.340;2022-10-04T01:31:14;10.07;;;6.80;;
40847;SDS011;26570;50.962;5.340;2022-10-04T01:34:00;14.67;;;6.57;;
40847;SDS011;26570;50.962;5.340;2022-10-04T01:36:49;9.80;;;6.30;;
40847;SDS011;26570;50.962;5.340;2022-10-04T01:39:44;16.20;;;7.20;;
40847;SDS011;26570;50.962;5.340;2022-10-04T01:42:35;16.63;;;8.17;;
40847;SDS011;26570;50.962;5.340;2022-10-04T01:45:46;18.33;;;8.60;;
40847;SDS011;26570;50.962;5.340;2022-10-04T01:48:35;18.83;;;8.83;;
40847;SDS011;26570;50.962;5.340;2022-10-04T01:51:23;13.40;;;7.47;;
40847;SDS011;26570;50.962;5.340;2022-10-04T01:54:16;11.70;;;6.13;;
40847;SDS011;26570;50.962;5.340;2022-10-04T02:00:05;12.23;;;5.90;;
40847;SDS011;26570;50.962;5.340;2022-10-04T02:03:00;14.50;;;6.10;;
40847;SDS011;26570;50.962;5.340;2022-10-04T02:05:53;11.50;;;5.73;;
40847;SDS011;26570;50.962;5.340;2022-10-04T02:08:49;10.10;;;6.90;;
40847;SDS011;26570;50.962;5.340;2022-10-04T02:11:41;17.20;;;7.97;;
40847;SDS011;26570;50.962;5.340;2022-10-04T02:14:28;11.43;;;5.50;;
40847;SDS011;26570;50.962;5.340;2022-10-04T02:17:21;14.03;;;6.10;;
40847;SDS011;26570;50.962;5.340;2022-10-04T02:20:16;15.90;;;7.30;;
40847;SDS011;26570;50.962;5.340;2022-10-04T02:23:05;14.10;;;7.33;;
40847;SDS011;26570;50.962;5.340;2022-10-04T02:25:52;9.73;;;5.40;;
40847;SDS011;26570;50.962;5.340;2022-10-04T02:28:38;11.57;;;6.80;;
40847;SDS011;26570;50.962;5.340;2022-10-04T02:31:25;14.57;;;6.23;;
40847;SDS011;26570;50.962;5.340;2022-10-04T02:34:30;11.03;;;7.10;;
40847;SDS011;26570;50.962;5.340;2022-10-04T02:37:16;18.17;;;6.40;;
40847;SDS011;26570;50.962;5.340;2022-10-04T02:40:03;11.57;;;6.23;;
40847;SDS011;26570;50.962;5.340;2022-10-04T02:42:56;13.77;;;7.50;;
40847;SDS011;26570;50.962;5.340;2022-10-04T02:46:07;10.93;;;6.63;;
40847;SDS011;26570;50.962;5.340;2022-10-04T02:52:13;12.37;;;7.53;;
40847;SDS011;26570;50.962;5.340;2022-10-04T02:58:06;13.37;;;6.67;;
40847;SDS011;26570;50.962;5.340;2022-10-04T03:00:55;14.00;;;6.83;;
40847;SDS011;26570;50.962;5.340;2022-10-04T03:03:45;15.20;;;6.23;;
40847;SDS011;26570;50.962;5.340;2022-10-04T03:06:31;11.90;;;6.63;;
40847;SDS011;26570;50.962;5.340;2022-10-04T03:09:18;18.87;;;7.53;;
40847;SDS011;26570;50.962;5.340;2022-10-04T03:12:06;10.53;;;5.40;;
40847;SDS011;26570;50.962;5.340;2022-10-04T03:14:54;18.50;;;5.70;;
40847;SDS011;26570;50.962;5.340;2022-10-04T03:17:42;8.63;;;4.93;;
40847;SDS011;26570;50.962;5.340;2022-10-04T03:20:29;16.47;;;7.23;;
40847;SDS011;26570;50.962;5.340;2022-10-04T03:23:16;11.77;;;6.37;;
40847;SDS011;26570;50.962;5.340;2022-10-04T03:29:15;11.33;;;4.90;;
40847;SDS011;26570;50.962;5.340;2022-10-04T03:32:02;17.63;;;5.30;;
40847;SDS011;26570;50.962;5.340;2022-10-04T03:34:56;14.60;;;5.17;;
40847;SDS011;26570;50.962;5.340;2022-10-04T03:37:51;7.70;;;5.13;;
40847;SDS011;26570;50.962;5.340;2022-10-04T03:40:37;10.23;;;5.30;;
40847;SDS011;26570;50.962;5.340;2022-10-04T03:43:29;9.93;;;5.33;;
40847;SDS011;26570;50.962;5.340;2022-10-04T03:46:17;15.30;;;6.10;;
40847;SDS011;26570;50.962;5.340;2022-10-04T03:49:06;10.13;;;6.07;;
40847;SDS011;26570;50.962;5.340;2022-10-04T03:51:52;17.13;;;6.83;;
40847;SDS011;26570;50.962;5.340;2022-10-04T03:54:38;10.63;;;5.50;;
40847;SDS011;26570;50.962;5.340;2022-10-04T03:57:24;10.23;;;4.80;;
40847;SDS011;26570;50.962;5.340;2022-10-04T04:00:15;15.80;;;5.30;;
40847;SDS011;26570;50.962;5.340;2022-10-04T04:03:04;13.97;;;5.53;;
40847;SDS011;26570;50.962;5.340;2022-10-04T04:05:53;11.00;;;4.07;;
40847;SDS011;26570;50.962;5.340;2022-10-04T04:09:10;11.00;;;4.60;;
40847;SDS011;26570;50.962;5.340;2022-10-04T04:12:43;11.60;;;5.07;;
40847;SDS011;26570;50.962;5.340;2022-10-04T04:15:37;13.55;;;5.35;;
40847;SDS011;26570;50.962;5.340;2022-10-04T04:18:31;17.53;;;5.77;;
40847;SDS011;26570;50.962;5.340;2022-10-04T04:21:18;14.30;;;5.67;;
40847;SDS011;26570;50.962;5.340;2022-10-04T04:24:18;13.10;;;6.33;;
40847;SDS011;26570;50.962;5.340;2022-10-04T04:27:09;17.57;;;7.30;;
40847;SDS011;26570;50.962;5.340;2022-10-04T04:29:57;17.73;;;6.13;;
40847;SDS011;26570;50.962;5.340;2022-10-04T04:32:47;11.87;;;5.47;;
40847;SDS011;26570;50.962;5.340;2022-10-04T04:35:38;15.63;;;5.83;;
40847;SDS011;26570;50.962;5.340;2022-10-04T04:38:26;15.77;;;6.77;;
40847;SDS011;26570;50.962;5.340;2022-10-04T04:41:12;17.10;;;5.57;;
40847;SDS011;26570;50.962;5.340;2022-10-04T04:43:58;14.40;;;5.33;;
40847;SDS011;26570;50.962;5.340;2022-10-04T04:46:45;18.30;;;7.60;;
40847;SDS011;26570;50.962;5.340;2022-10-04T04:49:31;14.77;;;7.00;;
40847;SDS011;26570;50.962;5.340;2022-10-04T04:52:23;16.77;;;6.40;;
40847;SDS011;26570;50.962;5.340;2022-10-04T04:55:25;16.43;;;5.70;;
40847;SDS011;26570;50.962;5.340;2022-10-04T04:58:17;11.50;;;4.95;;
40847;SDS011;26570;50.962;5.340;2022-10-04T05:01:06;17.20;;;6.00;;
40847;SDS011;26570;50.962;5.340;2022-10-04T05:09:49;17.07;;;5.70;;
40847;SDS011;26570;50.962;5.340;2022-10-04T05:12:34;15.87;;;5.90;;
40847;SDS011;26570;50.962;5.340;2022-10-04T05:15:20;10.90;;;5.33;;
40847;SDS011;26570;50.962;5.340;2022-10-04T05:21:21;18.10;;;6.03;;
40847;SDS011;26570;50.962;5.340;2022-10-04T05:24:19;16.20;;;5.33;;
40847;SDS011;26570;50.962;5.340;2022-10-04T05:27:14;16.90;;;6.07;;
40847;SDS011;26570;50.962;5.340;2022-10-04T05:33:45;17.90;;;5.60;;
40847;SDS011;26570;50.962;5.340;2022-10-04T05:39:28;12.70;;;5.13;;
40847;SDS011;26570;50.962;5.340;2022-10-04T05:42:24;13.83;;;8.00;;
40847;SDS011;26570;50.962;5.340;2022-10-04T05:45:43;14.90;;;7.03;;
40847;SDS011;26570;50.962;5.340;2022-10-04T05:48:30;21.80;;;8.57;;
40847;SDS011;26570;50.962;5.340;2022-10-04T05:51:21;24.83;;;7.67;;
40847;SDS011;26570;50.962;5.340;2022-10-04T05:54:18;16.53;;;8.33;;
40847;SDS011;26570;50.962;5.340;2022-10-04T05:57:17;35.00;;;8.60;;
40847;SDS011;26570;50.962;5.340;2022-10-04T06:00:17;25.67;;;9.83;;
40847;SDS011;26570;50.962;5.340;2022-10-04T06:03:12;25.33;;;8.33;;
40847;SDS011;26570;50.962;5.340;2022-10-04T06:06:04;30.77;;;9.63;;
40847;SDS011;26570;50.962;5.340;2022-10-04T06:09:12;28.27;;;8.53;;
40847;SDS011;26570;50.962;5.340;2022-10-04T06:24:48;23.70;;;8.33;;
40847;SDS011;26570;50.962;5.340;2022-10-04T06:27:49;22.65;;;9.82;;
40847;SDS011;26570;50.962;5.340;2022-10-04T06:31:13;24.00;;;8.90;;
40847;SDS011;26570;50.962;5.340;2022-10-04T06:44:33;27.25;;;8.63;;
40847;SDS011;26570;50.962;5.340;2022-10-04T06:53:25;12.13;;;5.63;;
40847;SDS011;26570;50.962;5.340;2022-10-04T07:00:03;8.13;;;3.13;;
40847;SDS011;26570;50.962;5.340;2022-10-04T07:03:15;8.97;;;2.50;;
40847;SDS011;26570;50.962;5.340;2022-10-04T07:06:07;12.27;;;2.17;;
40847;SDS011;26570;50.962;5.340;2022-10-04T07:08:54;6.73;;;2.50;;
40847;SDS011;26570;50.962;5.340;2022-10-04T07:14:45;9.90;;;2.63;;
40847;SDS011;26570;50.962;5.340;2022-10-04T07:17:36;7.80;;;2.80;;
40847;SDS011;26570;50.962;5.340;2022-10-04T07:20:26;5.67;;;2.37;;
40847;SDS011;26570;50.962;5.340;2022-10-04T07:23:21;6.83;;;2.30;;
40847;SDS011;26570;50.962;5.340;2022-10-04T07:29:31;5.53;;;2.50;;
40847;SDS011;26570;50.962;5.340;2022-10-04T07:38:09;9.07;;;2.10;;
40847;SDS011;26570;50.962;5.340;2022-10-04T07:44:05;5.57;;;1.90;;
40847;SDS011;26570;50.962;5.340;2022-10-04T07:50:28;6.20;;;1.92;;
40847;SDS011;26570;50.962;5.340;2022-10-04T08:15:08;9.38;;;3.03;;
40847;SDS011;26570;50.962;5.340;2022-10-04T08:18:26;8.15;;;2.83;;
40847;SDS011;26570;50.962;5.340;2022-10-04T08:21:28;7.75;;;2.38;;
40847;SDS011;26570;50.962;5.340;2022-10-04T08:24:25;8.80;;;2.42;;
40847;SDS011;26570;50.962;5.340;2022-10-04T08:27:21;11.50;;;2.55;;
40847;SDS011;26570;50.962;5.340;2022-10-04T08:36:53;11.80;;;2.70;;
40847;SDS011;26570;50.962;5.340;2022-10-04T08:58:25;5.67;;;1.60;;
40847;SDS011;26570;50.962;5.340;2022-10-04T09:04:53;7.17;;;1.27;;
40847;SDS011;26570;50.962;5.340;2022-10-04T09:32:09;8.30;;;1.05;;
40847;SDS011;26570;50.962;5.340;2022-10-04T09:50:40;5.47;;;1.00;;
40847;SDS011;26570;50.962;5.340;2022-10-04T09:53:40;4.28;;;1.05;;
40847;SDS011;26570;50.962;5.340;2022-10-04T09:57:00;7.70;;;0.90;;
40847;SDS011;26570;50.962;5.340;2022-10-04T10:28:35;7.63;;;1.10;;
40847;SDS011;26570;50.962;5.340;2022-10-04T10:48:04;6.37;;;0.90;;
40847;SDS011;26570;50.962;5.340;2022-10-04T11:00:51;5.10;;;1.63;;
40847;SDS011;26570;50.962;5.340;2022-10-04T11:16:38;5.78;;;0.80;;
40847;SDS011;26570;50.962;5.340;2022-10-04T11:38:50;4.25;;;0.65;;
40847;SDS011;26570;50.962;5.340;2022-10-04T11:42:00;3.95;;;0.63;;
40847;SDS011;26570;50.962;5.340;2022-10-04T11:51:25;5.88;;;0.80;;
40847;SDS011;26570;50.962;5.340;2022-10-04T12:10:14;4.80;;;0.88;;
40847;SDS011;26570;50.962;5.340;2022-10-04T12:22:42;3.60;;;1.00;;
40847;SDS011;26570;50.962;5.340;2022-10-04T12:31:44;5.88;;;0.80;;
40847;SDS011;26570;50.962;5.340;2022-10-04T12:37:39;4.05;;;0.85;;
40847;SDS011;26570;50.962;5.340;2022-10-04T12:40:36;3.90;;;0.82;;
40847;SDS011;26570;50.962;5.340;2022-10-04T12:59:22;8.05;;;1.10;;
40847;SDS011;26570;50.962;5.340;2022-10-04T13:02:30;3.75;;;0.80;;
40847;SDS011;26570;50.962;5.340;2022-10-04T13:11:49;6.53;;;1.08;;
40847;SDS011;26570;50.962;5.340;2022-10-04T13:14:59;7.68;;;1.40;;
40847;SDS011;26570;50.962;5.340;2022-10-04T13:31:21;5.30;;;1.10;;
40847;SDS011;26570;50.962;5.340;2022-10-04T14:03:12;12.23;;;1.10;;
40847;SDS011;26570;50.962;5.340;2022-10-04T14:06:19;5.70;;;0.90;;
40847;SDS011;26570;50.962;5.340;2022-10-04T14:10:02;8.02;;;0.80;;
40847;SDS011;26570;50.962;5.340;2022-10-04T14:12:46;1.70;;;0.80;;
40847;SDS011;26570;50.962;5.340;2022-10-04T14:16:14;4.03;;;0.50;;
40847;SDS011;26570;50.962;5.340;2022-10-04T14:25:14;6.45;;;1.10;;
40847;SDS011;26570;50.962;5.340;2022-10-04T14:33:53;2.97;;;0.60;;
40847;SDS011;26570;50.962;5.340;2022-10-04T14:50:19;4.47;;;0.70;;
40847;SDS011;26570;50.962;5.340;2022-10-04T14:53:20;2.80;;;0.70;;
40847;SDS011;26570;50.962;5.340;2022-10-04T14:56:41;7.38;;;0.77;;
40847;SDS011;26570;50.962;5.340;2022-10-04T15:05:57;5.28;;;0.70;;
40847;SDS011;26570;50.962;5.340;2022-10-04T15:09:19;3.25;;;0.80;;
40847;SDS011;26570;50.962;5.340;2022-10-04T15:24:29;2.50;;;0.60;;
40847;SDS011;26570;50.962;5.340;2022-10-04T15:46:04;2.95;;;0.75;;
40847;SDS011;26570;50.962;5.340;2022-10-04T15:49:37;4.15;;;0.70;;
40847;SDS011;26570;50.962;5.340;2022-10-04T15:55:03;3.90;;;0.70;;
40847;SDS011;26570;50.962;5.340;2022-10-04T15:58:18;2.78;;;0.80;;
40847;SDS011;26570;50.962;5.340;2022-10-04T16:04:39;5.03;;;0.75;;
40847;SDS011;26570;50.962;5.340;2022-10-04T16:14:04;4.45;;;0.90;;
40847;SDS011;26570;50.962;5.340;2022-10-04T16:23:35;7.83;;;0.80;;
40847;SDS011;26570;50.962;5.340;2022-10-04T16:32:20;5.20;;;1.00;;
40847;SDS011;26570;50.962;5.340;2022-10-04T16:35:16;4.33;;;1.03;;
40847;SDS011;26570;50.962;5.340;2022-10-04T16:43:55;4.13;;;1.80;;
40847;SDS011;26570;50.962;5.340;2022-10-04T16:46:46;5.90;;;1.17;;
40847;SDS011;26570;50.962;5.340;2022-10-04T16:49:36;3.83;;;1.20;;
40847;SDS011;26570;50.962;5.340;2022-10-04T16:58:41;5.90;;;1.00;;
40847;SDS011;26570;50.962;5.340;2022-10-04T17:14:31;1.90;;;1.10;;
40847;SDS011;26570;50.962;5.340;2022-10-04T17:26:56;12.07;;;2.93;;
40847;SDS011;26570;50.962;5.340;2022-10-04T17:38:39;10.37;;;2.10;;
40847;SDS011;26570;50.962;5.340;2022-10-04T17:45:13;8.17;;;3.30;;
40847;SDS011;26570;50.962;5.340;2022-10-04T17:48:14;8.20;;;2.93;;
40847;SDS011;26570;50.962;5.340;2022-10-04T17:54:27;8.82;;;3.75;;
40847;SDS011;26570;50.962;5.340;2022-10-04T18:07:03;8.00;;;4.30;;
40847;SDS011;26570;50.962;5.340;2022-10-04T18:10:00;10.17;;;3.73;;
40847;SDS011;26570;50.962;5.340;2022-10-04T18:13:04;9.03;;;4.27;;
40847;SDS011;26570;50.962;5.340;2022-10-04T18:16:15;7.50;;;4.37;;
40847;SDS011;26570;50.962;5.340;2022-10-04T18:23:13;13.70;;;4.40;;
40847;SDS011;26570;50.962;5.340;2022-10-04T18:26:13;11.50;;;6.63;;
40847;SDS011;26570;50.962;5.340;2022-10-04T18:29:01;12.53;;;5.77;;
40847;SDS011;26570;50.962;5.340;2022-10-04T18:31:56;12.47;;;5.33;;
40847;SDS011;26570;50.962;5.340;2022-10-04T18:34:51;8.07;;;4.70;;
40847;SDS011;26570;50.962;5.340;2022-10-04T18:40:26;9.30;;;5.33;;
40847;SDS011;26570;50.962;5.340;2022-10-04T18:43:30;7.03;;;4.97;;
40847;SDS011;26570;50.962;5.340;2022-10-04T18:46:20;11.07;;;5.93;;
40847;SDS011;26570;50.962;5.340;2022-10-04T18:49:16;12.67;;;6.63;;
40847;SDS011;26570;50.962;5.340;2022-10-04T18:55:40;10.00;;;5.27;;
40847;SDS011;26570;50.962;5.340;2022-10-04T18:58:04;10.00;;;5.47;;
40847;SDS011;26570;50.962;5.340;2022-10-04T19:10:50;9.63;;;5.40;;
40847;SDS011;26570;50.962;5.340;2022-10-04T19:20:15;12.50;;;5.20;;
40847;SDS011;26570;50.962;5.340;2022-10-04T19:29:20;15.60;;;6.17;;
40847;SDS011;26570;50.962;5.340;2022-10-04T19:38:54;12.93;;;5.93;;
40847;SDS011;26570;50.962;5.340;2022-10-04T19:42:02;12.93;;;6.25;;
40847;SDS011;26570;50.962;5.340;2022-10-04T19:48:57;8.37;;;5.80;;
40847;SDS011;26570;50.962;5.340;2022-10-04T19:51:47;12.77;;;6.10;;
40847;SDS011;26570;50.962;5.340;2022-10-04T19:54:38;12.17;;;5.77;;
40847;SDS011;26570;50.962;5.340;2022-10-04T19:57:35;13.53;;;7.17;;
40847;SDS011;26570;50.962;5.340;2022-10-04T20:00:23;12.17;;;7.90;;
40847;SDS011;26570;50.962;5.340;2022-10-04T20:03:09;10.53;;;7.83;;
40847;SDS011;26570;50.962;5.340;2022-10-04T20:05:55;12.23;;;7.30;;
40847;SDS011;26570;50.962;5.340;2022-10-04T20:17:20;14.47;;;7.13;;
40847;SDS011;26570;50.962;5.340;2022-10-04T20:20:16;10.77;;;6.90;;
40847;SDS011;26570;50.962;5.340;2022-10-04T20:26:41;10.93;;;6.83;;
40847;SDS011;26570;50.962;5.340;2022-10-04T20:50:28;17.27;;;8.07;;
40847;SDS011;26570;50.962;5.340;2022-10-04T20:59:11;12.37;;;8.13;;
40847;SDS011;26570;50.962;5.340;2022-10-04T21:01:59;10.57;;;8.40;;
40847;SDS011;26570;50.962;5.340;2022-10-04T21:04:48;11.23;;;8.40;;
40847;SDS011;26570;50.962;5.340;2022-10-04T21:07:38;15.03;;;8.23;;
40847;SDS011;26570;50.962;5.340;2022-10-04T21:10:24;15.87;;;9.20;;
40847;SDS011;26570;50.962;5.340;2022-10-04T21:16:44;13.70;;;9.43;;
40847;SDS011;26570;50.962;5.340;2022-10-04T21:25:27;19.20;;;8.13;;
40847;SDS011;26570;50.962;5.340;2022-10-04T21:28:20;18.87;;;8.53;;
40847;SDS011;26570;50.962;5.340;2022-10-04T21:31:19;13.10;;;7.90;;
40847;SDS011;26570;50.962;5.340;2022-10-04T21:34:05;10.93;;;7.57;;
40847;SDS011;26570;50.962;5.340;2022-10-04T21:36:52;14.80;;;8.03;;
40847;SDS011;26570;50.962;5.340;2022-10-04T21:39:37;10.77;;;8.37;;
40847;SDS011;26570;50.962;5.340;2022-10-04T21:42:24;11.27;;;8.33;;
40847;SDS011;26570;50.962;5.340;2022-10-04T21:45:10;10.43;;;9.03;;
40847;SDS011;26570;50.962;5.340;2022-10-04T21:47:55;12.70;;;8.57;;
40847;SDS011;26570;50.962;5.340;2022-10-04T21:50:42;12.13;;;9.30;;
40847;SDS011;26570;50.962;5.340;2022-10-04T21:53:28;17.50;;;9.67;;
40847;SDS011;26570;50.962;5.340;2022-10-04T21:56:14;14.37;;;9.43;;
40847;SDS011;26570;50.962;5.340;2022-10-04T21:59:00;16.67;;;9.53;;
40847;SDS011;26570;50.962;5.340;2022-10-04T22:01:46;14.30;;;8.87;;
40847;SDS011;26570;50.962;5.340;2022-10-04T22:04:32;16.57;;;9.67;;
40847;SDS011;26570;50.962;5.340;2022-10-04T22:07:18;17.40;;;9.83;;
40847;SDS011;26570;50.962;5.340;2022-10-04T22:10:05;23.20;;;10.90;;
40847;SDS011;26570;50.962;5.340;2022-10-04T22:12:52;16.37;;;10.37;;
40847;SDS011;26570;50.962;5.340;2022-10-04T22:15:40;18.57;;;10.10;;
40847;SDS011;26570;50.962;5.340;2022-10-04T22:18:26;16.90;;;11.00;;
40847;SDS011;26570;50.962;5.340;2022-10-04T22:21:12;14.67;;;9.77;;
40847;SDS011;26570;50.962;5.340;2022-10-04T22:23:58;16.20;;;10.70;;
40847;SDS011;26570;50.962;5.340;2022-10-04T22:26:46;15.70;;;10.00;;
40847;SDS011;26570;50.962;5.340;2022-10-04T22:29:55;14.63;;;9.77;;
40847;SDS011;26570;50.962;5.340;2022-10-04T22:32:42;12.93;;;9.53;;
40847;SDS011;26570;50.962;5.340;2022-10-04T22:35:29;16.50;;;9.47;;
40847;SDS011;26570;50.962;5.340;2022-10-04T22:38:18;17.07;;;10.03;;
40847;SDS011;26570;50.962;5.340;2022-10-04T22:41:08;18.53;;;9.40;;
40847;SDS011;26570;50.962;5.340;2022-10-04T22:43:57;16.50;;;9.73;;
40847;SDS011;26570;50.962;5.340;2022-10-04T22:46:51;15.82;;;9.80;;
40847;SDS011;26570;50.962;5.340;2022-10-04T22:49:43;15.53;;;10.03;;
40847;SDS011;26570;50.962;5.340;2022-10-04T22:52:31;19.00;;;10.43;;
40847;SDS011;26570;50.962;5.340;2022-10-04T22:55:17;16.93;;;9.73;;
40847;SDS011;26570;50.962;5.340;2022-10-04T22:58:03;12.73;;;10.57;;
40847;SDS011;26570;50.962;5.340;2022-10-04T23:00:48;14.80;;;10.63;;
40847;SDS011;26570;50.962;5.340;2022-10-04T23:03:35;16.43;;;10.73;;
40847;SDS011;26570;50.962;5.340;2022-10-04T23:06:22;18.40;;;11.67;;
40847;SDS011;26570;50.962;5.340;2022-10-04T23:09:08;19.37;;;11.33;;
40847;SDS011;26570;50.962;5.340;2022-10-04T23:11:54;18.17;;;11.43;;
40847;SDS011;26570;50.962;5.340;2022-10-04T23:14:41;20.70;;;12.90;;
40847;SDS011;26570;50.962;5.340;2022-10-04T23:17:37;22.37;;;12.17;;
40847;SDS011;26570;50.962;5.340;2022-10-04T23:20:26;20.37;;;11.83;;
40847;SDS011;26570;50.962;5.340;2022-10-04T23:23:13;14.43;;;10.70;;
40847;SDS011;26570;50.962;5.340;2022-10-04T23:26:10;16.93;;;10.73;;
40847;SDS011;26570;50.962;5.340;2022-10-04T23:28:58;19.97;;;10.13;;
40847;SDS011;26570;50.962;5.340;2022-10-04T23:31:44;14.00;;;10.97;;
40847;SDS011;26570;50.962;5.340;2022-10-04T23:34:33;17.10;;;11.03;;
40847;SDS011;26570;50.962;5.340;2022-10-04T23:37:22;16.03;;;10.47;;
40847;SDS011;26570;50.962;5.340;2022-10-04T23:40:11;12.83;;;11.03;;
40847;SDS011;26570;50.962;5.340;2022-10-04T23:42:59;15.53;;;10.13;;
40847;SDS011;26570;50.962;5.340;2022-10-04T23:45:47;17.90;;;11.57;;
40847;SDS011;26570;50.962;5.340;2022-10-04T23:48:33;15.70;;;10.70;;
40847;SDS011;26570;50.962;5.340;2022-10-04T23:51:20;16.73;;;10.47;;
40847;SDS011;26570;50.962;5.340;2022-10-04T23:54:09;15.43;;;9.77;;
40847;SDS011;26570;50.962;5.340;2022-10-04T23:57:06;18.03;;;10.83;;
40847;SDS011;26570;50.962;5.340;2022-10-04T23:59:54;20.13;;;11.50;;
